createdAt,value
2017-05-21T00:02:06.013Z,4.22
2017-05-21T00:04:35.059Z,3.20
2017-05-21T00:07:04.105Z,5.64
2017-05-21T00:09:33.149Z,3.62
2017-05-21T00:12:02.221Z,6.20
2017-05-21T00:14:31.286Z,3.88
2017-05-21T00:17:00.315Z,6.22
2017-05-21T00:19:29.357Z,3.64
2017-05-21T00:21:58.402Z,4.50
2017-05-21T00:24:27.467Z,8.02
2017-05-21T00:26:56.542Z,5.02
2017-05-21T00:29:25.584Z,5.92
2017-05-21T00:31:54.619Z,5.84
2017-05-21T00:34:23.762Z,10.48
2017-05-21T00:36:52.835Z,6.96
2017-05-21T00:39:21.850Z,9.56
2017-05-21T00:41:50.936Z,5.74
2017-05-21T00:44:19.949Z,4.90
2017-05-21T00:46:49.016Z,6.06
2017-05-21T00:49:18.090Z,5.28
2017-05-21T00:51:47.110Z,5.20
2017-05-21T00:54:16.236Z,4.72
2017-05-21T00:56:45.385Z,6.80
2017-05-21T00:59:14.524Z,5.12
2017-05-21T01:01:43.518Z,4.60
2017-05-21T01:04:12.674Z,4.52
2017-05-21T01:06:41.685Z,5.14
2017-05-21T01:09:10.724Z,5.42
2017-05-21T01:11:39.791Z,4.18
2017-05-21T01:14:08.817Z,3.92
2017-05-21T01:16:37.914Z,5.52
2017-05-21T01:19:06.958Z,4.20
2017-05-21T01:21:35.986Z,3.98
2017-05-21T01:24:05.125Z,5.78
2017-05-21T01:26:34.192Z,6.04
2017-05-21T01:29:03.210Z,6.60
2017-05-21T01:31:32.363Z,5.18
2017-05-21T01:34:01.394Z,4.58
2017-05-21T01:36:30.412Z,12.70
2017-05-21T01:38:59.446Z,5.32
2017-05-21T01:41:28.498Z,6.52
2017-05-21T01:43:57.574Z,7.60
2017-05-21T01:46:26.606Z,6.10
2017-05-21T01:48:55.826Z,6.32
2017-05-21T01:51:24.818Z,5.12
2017-05-21T01:53:53.835Z,6.84
2017-05-21T01:56:22.914Z,5.72
2017-05-21T01:58:52.045Z,7.08
2017-05-21T02:01:21.150Z,4.96
2017-05-21T02:03:50.193Z,4.82
2017-05-21T02:06:19.210Z,6.12
2017-05-21T02:08:48.237Z,5.30
2017-05-21T02:11:17.299Z,10.62
2017-05-21T02:13:46.328Z,5.24
2017-05-21T02:16:15.426Z,4.72
2017-05-21T02:18:44.777Z,4.18
2017-05-21T02:21:13.793Z,5.22
2017-05-21T02:23:42.898Z,4.28
2017-05-21T02:26:12.037Z,4.92
2017-05-21T02:28:41.026Z,4.86
2017-05-21T02:31:10.069Z,4.04
2017-05-21T02:33:39.182Z,3.94
2017-05-21T02:36:08.202Z,5.32
2017-05-21T02:38:37.230Z,5.10
2017-05-21T02:41:06.325Z,4.24
2017-05-21T02:43:35.345Z,4.86
2017-05-21T02:46:04.363Z,5.54
2017-05-21T02:48:33.421Z,5.38
2017-05-21T02:51:02.439Z,3.76
2017-05-21T02:53:31.478Z,4.42
2017-05-21T02:56:00.531Z,4.20
2017-05-21T02:58:29.636Z,9.18
2017-05-21T03:00:58.642Z,4.22
2017-05-21T03:03:27.791Z,3.50
2017-05-21T03:05:56.885Z,3.74
2017-05-21T03:08:25.981Z,4.66
2017-05-21T03:10:55.042Z,3.34
2017-05-21T03:13:24.070Z,4.00
2017-05-21T03:15:53.081Z,3.12
2017-05-21T03:18:22.154Z,4.16
2017-05-21T03:20:51.171Z,4.14
2017-05-21T03:23:20.200Z,3.30
2017-05-21T03:25:49.333Z,3.32
2017-05-21T03:28:18.442Z,4.48
2017-05-21T03:30:47.465Z,3.64
2017-05-21T03:33:16.559Z,4.30
2017-05-21T03:35:45.614Z,3.64
2017-05-21T03:38:14.635Z,3.84
2017-05-21T03:40:43.684Z,5.34
2017-05-21T03:43:12.734Z,3.46
2017-05-21T03:45:41.741Z,3.42
2017-05-21T03:48:10.795Z,4.20
2017-05-21T03:50:39.801Z,3.72
2017-05-21T03:53:08.817Z,5.40
2017-05-21T03:55:37.866Z,4.96
2017-05-21T03:58:06.966Z,4.96
2017-05-21T04:00:36.461Z,5.18
2017-05-21T04:03:05.523Z,5.20
2017-05-21T04:05:34.550Z,5.72
2017-05-21T04:08:03.577Z,6.48
2017-05-21T04:10:32.737Z,8.40
2017-05-21T04:13:01.754Z,6.72
2017-05-21T04:15:30.775Z,6.56
2017-05-21T04:17:59.847Z,6.10
2017-05-21T04:20:28.878Z,7.18
2017-05-21T04:22:57.912Z,5.12
2017-05-21T04:25:26.983Z,7.30
2017-05-21T04:27:56.003Z,5.20
2017-05-21T04:30:25.088Z,5.94
2017-05-21T04:35:29.417Z,7.40
2017-05-21T04:37:58.461Z,6.08
2017-05-21T04:40:27.512Z,6.02
2017-05-21T04:42:56.527Z,6.08
2017-05-21T04:45:25.666Z,5.90
2017-05-21T04:47:54.698Z,10.04
2017-05-21T04:50:23.723Z,5.80
2017-05-21T04:52:52.761Z,5.70
2017-05-21T04:55:21.808Z,8.40
2017-05-21T04:57:50.914Z,5.68
2017-05-21T05:00:19.949Z,5.82
2017-05-21T05:02:48.968Z,5.90
2017-05-21T05:05:18.013Z,6.08
2017-05-21T05:07:47.146Z,6.32
2017-05-21T05:10:16.190Z,6.82
2017-05-21T05:12:45.236Z,6.18
2017-05-21T05:15:14.274Z,6.12
2017-05-21T05:17:43.298Z,6.20
2017-05-21T05:20:12.353Z,5.48
2017-05-21T05:22:41.405Z,5.68
2017-05-21T05:25:10.498Z,6.18
2017-05-21T05:27:39.595Z,5.46
2017-05-21T05:30:08.702Z,5.70
2017-05-21T05:32:37.794Z,6.28
2017-05-21T05:35:06.813Z,7.32
2017-05-21T05:37:35.923Z,7.14
2017-05-21T05:40:04.938Z,7.46
2017-05-21T05:42:33.955Z,5.98
2017-05-21T05:45:03.018Z,7.38
2017-05-21T05:47:32.051Z,5.88
2017-05-21T05:50:01.087Z,7.42
2017-05-21T05:52:30.130Z,9.42
2017-05-21T05:54:59.206Z,4.36
2017-05-21T05:57:28.235Z,6.24
2017-05-21T05:59:57.285Z,4.92
2017-05-21T06:02:26.310Z,6.08
2017-05-21T06:04:55.335Z,5.24
2017-05-21T06:07:24.535Z,5.84
2017-05-21T06:09:53.617Z,5.80
2017-05-21T06:12:22.662Z,5.68
2017-05-21T06:14:51.702Z,6.26
2017-05-21T06:17:20.750Z,11.06
2017-05-21T06:19:49.761Z,6.82
2017-05-21T06:22:18.838Z,6.46
2017-05-21T06:24:47.860Z,6.70
2017-05-21T06:27:16.962Z,6.58
2017-05-21T06:29:46.059Z,5.80
2017-05-21T06:32:15.075Z,6.66
2017-05-21T06:34:44.083Z,5.50
2017-05-21T06:37:13.139Z,7.02
2017-05-21T06:39:42.198Z,6.28
2017-05-21T06:42:11.233Z,5.34
2017-05-21T06:44:40.306Z,4.92
2017-05-21T06:47:09.416Z,8.42
2017-05-21T06:49:38.434Z,8.52
2017-05-21T06:52:07.497Z,6.20
2017-05-21T06:54:36.516Z,4.80
2017-05-21T06:57:05.538Z,5.56
2017-05-21T06:59:34.650Z,4.98
2017-05-21T07:02:03.667Z,5.80
2017-05-21T07:04:32.682Z,5.08
2017-05-21T07:07:01.738Z,4.94
2017-05-21T07:09:30.854Z,5.08
2017-05-21T07:11:59.861Z,4.60
2017-05-21T07:14:28.911Z,5.98
2017-05-21T07:16:57.932Z,5.62
2017-05-21T07:19:26.942Z,8.12
2017-05-21T07:21:56.001Z,7.54
2017-05-21T07:24:25.115Z,7.22
2017-05-21T07:26:54.135Z,6.46
2017-05-21T07:29:23.175Z,6.02
2017-05-21T07:31:52.198Z,5.82
2017-05-21T07:34:21.228Z,5.46
2017-05-21T07:36:50.294Z,5.20
2017-05-21T07:39:19.371Z,6.82
2017-05-21T07:41:48.390Z,5.62
2017-05-21T07:44:17.454Z,5.78
2017-05-21T07:46:46.541Z,10.06
2017-05-21T07:49:15.842Z,5.74
2017-05-21T07:51:44.888Z,5.66
2017-05-21T07:54:13.903Z,4.84
2017-05-21T07:56:42.931Z,4.58
2017-05-21T07:59:12.002Z,4.60
2017-05-21T08:01:40.999Z,5.84
2017-05-21T08:04:10.182Z,3.42
2017-05-21T08:06:39.246Z,5.94
2017-05-21T08:09:08.253Z,3.70
2017-05-21T08:11:37.281Z,4.52
2017-05-21T08:14:06.390Z,4.50
2017-05-21T08:16:35.399Z,4.74
2017-05-21T08:19:04.506Z,3.32
2017-05-21T08:21:33.555Z,3.84
2017-05-21T08:24:02.574Z,3.60
2017-05-21T08:26:31.601Z,3.70
2017-05-21T08:29:00.674Z,5.66
2017-05-21T08:31:29.764Z,3.42
2017-05-21T08:33:58.794Z,2.80
2017-05-21T08:36:27.095Z,2.68
2017-05-21T08:38:56.117Z,3.10
2017-05-21T08:41:25.135Z,4.38
2017-05-21T08:43:54.182Z,2.92
2017-05-21T08:46:23.198Z,2.84
2017-05-21T08:48:52.215Z,3.10
2017-05-21T08:51:21.322Z,3.72
2017-05-21T08:53:50.352Z,4.80
2017-05-21T08:56:19.386Z,2.60
2017-05-21T08:58:48.436Z,2.26
2017-05-21T09:01:17.449Z,1.86
2017-05-21T09:03:46.458Z,2.72
2017-05-21T09:06:15.497Z,2.26
2017-05-21T09:08:45.141Z,2.32
2017-05-21T09:11:14.145Z,3.58
2017-05-21T09:13:43.231Z,2.14
2017-05-21T09:16:12.406Z,3.76
2017-05-21T09:18:41.414Z,2.58
2017-05-21T09:21:10.497Z,4.08
2017-05-21T09:23:39.506Z,1.86
2017-05-21T09:26:08.533Z,2.84
2017-05-21T09:28:37.598Z,4.04
2017-05-21T09:31:06.694Z,2.90
2017-05-21T09:33:35.706Z,2.00
2017-05-21T09:36:04.746Z,1.60
2017-05-21T09:38:33.770Z,2.30
2017-05-21T09:41:02.790Z,1.36
2017-05-21T09:43:31.836Z,1.54
2017-05-21T09:46:00.845Z,2.70
2017-05-21T09:48:29.854Z,1.68
2017-05-21T09:50:58.897Z,1.56
2017-05-21T09:53:27.919Z,1.90
2017-05-21T09:55:56.925Z,3.52
2017-05-21T09:58:25.990Z,4.16
2017-05-21T10:00:55.120Z,4.92
2017-05-21T10:03:24.135Z,4.18
2017-05-21T10:05:53.195Z,2.10
2017-05-21T10:08:22.219Z,2.70
2017-05-21T10:10:51.212Z,3.58
2017-05-21T10:13:20.258Z,2.56
2017-05-21T10:15:49.278Z,1.70
2017-05-21T10:18:18.293Z,2.52
2017-05-21T10:20:47.350Z,2.36
2017-05-21T10:23:16.358Z,1.72
2017-05-21T10:25:45.383Z,2.30
2017-05-21T10:28:14.431Z,2.80
2017-05-21T10:30:43.546Z,1.86
2017-05-21T10:33:12.554Z,1.80
2017-05-21T10:35:41.605Z,1.26
2017-05-21T10:38:10.639Z,1.22
2017-05-21T10:40:39.666Z,1.78
2017-05-21T10:43:08.815Z,1.92
2017-05-21T10:45:37.828Z,1.24
2017-05-21T10:48:06.854Z,1.22
2017-05-21T10:50:35.909Z,4.16
2017-05-21T10:53:04.948Z,4.60
2017-05-21T10:55:33.966Z,1.50
2017-05-21T10:58:03.091Z,1.40
2017-05-21T11:00:32.168Z,2.04
2017-05-21T11:03:01.178Z,1.30
2017-05-21T11:05:30.221Z,2.22
2017-05-21T11:07:59.243Z,1.50
2017-05-21T11:10:28.253Z,1.30
2017-05-21T11:12:57.317Z,1.80
2017-05-21T11:15:26.381Z,2.16
2017-05-21T11:17:55.406Z,3.18
2017-05-21T11:20:24.454Z,2.12
2017-05-21T11:22:53.479Z,1.90
2017-05-21T11:25:22.705Z,1.30
2017-05-21T11:27:51.758Z,2.02
2017-05-21T11:30:20.781Z,1.06
2017-05-21T11:32:49.783Z,2.16
2017-05-21T11:35:18.878Z,2.42
2017-05-21T11:37:47.903Z,1.80
2017-05-21T11:40:16.918Z,1.94
2017-05-21T11:42:45.968Z,2.48
2017-05-21T11:45:15.055Z,2.36
2017-05-21T11:47:44.066Z,1.64
2017-05-21T11:50:13.151Z,1.78
2017-05-21T11:52:42.176Z,3.42
2017-05-21T11:55:11.194Z,2.02
2017-05-21T11:57:40.253Z,1.58
2017-05-21T12:00:09.270Z,5.18
2017-05-21T12:02:38.293Z,1.50
2017-05-21T12:05:07.407Z,2.10
2017-05-21T12:07:36.439Z,1.48
2017-05-21T12:10:05.543Z,1.62
2017-05-21T12:12:34.611Z,2.02
2017-05-21T12:15:03.633Z,1.68
2017-05-21T12:17:32.647Z,1.86
2017-05-21T12:20:01.710Z,1.56
2017-05-21T12:22:30.719Z,2.24
2017-05-21T12:24:59.738Z,2.40
2017-05-21T12:27:28.811Z,1.74
2017-05-21T12:29:57.836Z,2.10
2017-05-21T12:32:26.851Z,2.14
2017-05-21T12:34:55.931Z,1.54
2017-05-21T12:37:25.456Z,1.70
2017-05-21T12:39:54.530Z,1.78
2017-05-21T12:42:23.582Z,1.86
2017-05-21T12:44:52.599Z,2.52
2017-05-21T12:47:21.612Z,2.82
2017-05-21T12:49:50.700Z,2.28
2017-05-21T12:52:19.747Z,2.12
2017-05-21T12:54:48.771Z,3.10
2017-05-21T12:57:17.833Z,3.00
2017-05-21T12:59:46.959Z,2.52
2017-05-21T13:02:15.972Z,2.10
2017-05-21T13:04:45.018Z,3.20
2017-05-21T13:07:14.138Z,2.56
2017-05-21T13:09:43.171Z,1.54
2017-05-21T13:12:12.209Z,2.04
2017-05-21T13:14:41.344Z,2.38
2017-05-21T13:17:10.361Z,1.76
2017-05-21T13:19:39.449Z,2.12
2017-05-21T13:22:08.476Z,2.40
2017-05-21T13:24:37.490Z,4.90
2017-05-21T13:27:06.558Z,2.74
2017-05-21T13:29:35.599Z,1.94
2017-05-21T13:32:04.769Z,1.82
2017-05-21T13:34:33.844Z,1.68
2017-05-21T13:37:02.866Z,1.78
2017-05-21T13:39:31.977Z,1.74
2017-05-21T13:42:01.043Z,1.92
2017-05-21T13:44:30.060Z,1.86
2017-05-21T13:46:59.167Z,2.06
2017-05-21T13:49:28.223Z,2.00
2017-05-21T13:51:57.249Z,2.50
2017-05-21T13:54:26.255Z,2.10
2017-05-21T13:56:55.314Z,2.90
2017-05-21T13:59:24.314Z,2.22
2017-05-21T14:01:53.349Z,1.76
2017-05-21T14:04:22.413Z,1.76
2017-05-21T14:06:51.505Z,1.66
2017-05-21T14:09:20.528Z,2.00
2017-05-21T14:11:49.595Z,1.48
2017-05-21T14:14:18.606Z,1.56
2017-05-21T14:16:47.629Z,1.64
2017-05-21T14:19:16.712Z,2.28
2017-05-21T14:21:45.737Z,1.30
2017-05-21T14:24:14.745Z,2.08
2017-05-21T14:26:43.866Z,1.92
2017-05-21T14:29:12.972Z,2.38
2017-05-21T14:31:41.983Z,2.60
2017-05-21T14:34:11.041Z,1.98
2017-05-21T14:36:40.055Z,3.24
2017-05-21T14:39:09.127Z,1.50
2017-05-21T14:41:38.233Z,1.76
2017-05-21T14:44:07.265Z,2.58
2017-05-21T14:46:36.269Z,2.04
2017-05-21T14:49:05.389Z,2.86
2017-05-21T14:51:34.508Z,2.12
2017-05-21T14:54:03.527Z,1.50
2017-05-21T14:56:32.733Z,2.50
2017-05-21T14:59:01.743Z,2.80
2017-05-21T15:01:30.877Z,1.30
2017-05-21T15:03:59.915Z,7.54
2017-05-21T15:06:28.966Z,2.42
2017-05-21T15:08:57.984Z,2.14
2017-05-21T15:11:27.022Z,2.56
2017-05-21T15:13:56.133Z,1.38
2017-05-21T15:16:25.181Z,2.02
2017-05-21T15:18:54.234Z,2.10
2017-05-21T15:21:23.340Z,1.62
2017-05-21T15:23:52.360Z,1.80
2017-05-21T15:26:21.477Z,2.86
2017-05-21T15:28:50.505Z,1.86
2017-05-21T15:31:19.605Z,2.78
2017-05-21T15:33:48.735Z,1.66
2017-05-21T15:36:17.762Z,3.60
2017-05-21T15:38:46.780Z,3.52
2017-05-21T15:41:15.856Z,1.42
2017-05-21T15:43:44.853Z,2.10
2017-05-21T15:46:13.900Z,1.84
2017-05-21T15:48:43.081Z,1.56
2017-05-21T15:51:12.118Z,1.50
2017-05-21T15:53:41.171Z,3.16
2017-05-21T15:56:10.229Z,4.00
2017-05-21T15:58:39.237Z,1.70
2017-05-21T16:01:08.258Z,1.56
2017-05-21T16:03:37.323Z,1.50
2017-05-21T16:06:06.434Z,2.88
2017-05-21T16:08:35.517Z,2.50
2017-05-21T16:11:04.621Z,2.34
2017-05-21T16:13:33.663Z,2.64
2017-05-21T16:16:02.662Z,3.02
2017-05-21T16:18:31.713Z,2.82
2017-05-21T16:21:00.808Z,3.24
2017-05-21T16:23:29.805Z,1.94
2017-05-21T16:25:58.878Z,2.46
2017-05-21T16:28:27.933Z,2.06
2017-05-21T16:30:56.949Z,3.60
2017-05-21T16:33:26.013Z,10.04
2017-05-21T16:35:55.034Z,2.58
2017-05-21T16:38:24.050Z,2.42
2017-05-21T16:40:53.135Z,2.48
2017-05-21T16:43:22.148Z,2.14
2017-05-21T16:45:51.271Z,2.54
2017-05-21T16:48:20.265Z,2.30
2017-05-21T16:50:49.285Z,2.00
2017-05-21T16:53:18.419Z,3.44
2017-05-21T16:55:47.465Z,1.60
2017-05-21T16:58:16.517Z,2.40
2017-05-21T17:00:45.528Z,3.92
2017-05-21T17:03:14.685Z,2.26
2017-05-21T17:05:43.703Z,2.48
2017-05-21T17:08:12.795Z,2.42
2017-05-21T17:10:41.872Z,2.50
2017-05-21T17:13:10.964Z,2.26
2017-05-21T17:15:39.981Z,2.10
2017-05-21T17:18:09.047Z,2.08
2017-05-21T17:20:38.099Z,1.60
2017-05-21T17:23:07.090Z,6.72
2017-05-21T17:25:36.154Z,1.86
2017-05-21T17:28:05.166Z,2.04
2017-05-21T17:30:34.185Z,6.44
2017-05-21T17:33:03.250Z,2.20
2017-05-21T17:35:32.261Z,2.28
2017-05-21T17:38:01.289Z,1.98
2017-05-21T17:40:30.347Z,2.28
2017-05-21T17:42:59.385Z,2.42
2017-05-21T17:45:28.415Z,1.78
2017-05-21T17:47:57.458Z,2.30
2017-05-21T17:50:26.481Z,1.86
2017-05-21T17:52:55.513Z,7.36
2017-05-21T17:55:24.657Z,1.94
2017-05-21T17:57:53.686Z,3.12
2017-05-21T18:00:22.789Z,2.28
2017-05-21T18:02:51.858Z,2.06
2017-05-21T18:05:20.887Z,1.80
2017-05-21T18:07:49.915Z,2.00
2017-05-21T18:10:18.979Z,2.30
2017-05-21T18:12:48.010Z,3.54
2017-05-21T18:15:17.036Z,2.50
2017-05-21T18:17:46.198Z,11.16
2017-05-21T18:20:15.218Z,9.98
2017-05-21T18:22:44.237Z,11.96
2017-05-21T18:25:13.283Z,13.60
2017-05-21T18:30:17.710Z,9.86
2017-05-21T18:32:46.732Z,6.40
2017-05-21T18:35:15.773Z,10.22
2017-05-21T18:37:44.836Z,4.16
2017-05-21T18:40:13.958Z,8.40
2017-05-21T18:42:42.980Z,2.82
2017-05-21T18:45:12.036Z,3.88
2017-05-21T18:47:41.068Z,3.30
2017-05-21T18:50:10.084Z,4.00
2017-05-21T18:52:39.139Z,3.14
2017-05-21T18:55:08.170Z,2.20
2017-05-21T18:57:37.187Z,2.22
2017-05-21T19:00:06.231Z,2.72
2017-05-21T19:02:35.238Z,1.88
2017-05-21T19:05:04.261Z,2.02
2017-05-21T19:07:33.321Z,2.58
2017-05-21T19:10:02.331Z,4.34
2017-05-21T19:12:31.352Z,2.88
2017-05-21T19:15:00.385Z,4.34
2017-05-21T19:17:29.394Z,2.78
2017-05-21T19:19:58.408Z,4.20
2017-05-21T19:22:27.454Z,2.88
2017-05-21T19:24:56.465Z,2.84
2017-05-21T19:27:25.489Z,10.38
2017-05-21T19:29:54.556Z,2.40
2017-05-21T19:32:24.064Z,3.26
2017-05-21T19:34:53.094Z,4.48
2017-05-21T19:37:22.415Z,2.90
2017-05-21T19:39:51.434Z,2.92
2017-05-21T19:42:20.457Z,2.74
2017-05-21T19:44:49.560Z,3.58
2017-05-21T19:47:18.572Z,4.16
2017-05-21T19:49:47.679Z,2.40
2017-05-21T19:52:16.726Z,3.06
2017-05-21T19:54:45.839Z,6.60
2017-05-21T19:57:14.854Z,2.48
2017-05-21T19:59:44.152Z,2.82
2017-05-21T20:02:13.321Z,3.56
2017-05-21T20:04:42.549Z,2.66
2017-05-21T20:07:11.717Z,2.78
2017-05-21T20:09:40.849Z,2.96
2017-05-21T20:12:10.032Z,4.98
2017-05-21T20:14:39.256Z,4.46
2017-05-21T20:17:08.274Z,2.68
2017-05-21T20:19:37.319Z,2.42
2017-05-21T20:22:06.371Z,3.14
2017-05-21T20:24:35.401Z,2.38
2017-05-21T20:27:04.410Z,2.22
2017-05-21T20:29:33.560Z,5.10
2017-05-21T20:32:02.578Z,2.84
2017-05-21T20:34:31.682Z,2.82
2017-05-21T20:37:00.721Z,3.70
2017-05-21T20:39:29.742Z,2.90
2017-05-21T20:41:58.743Z,2.52
2017-05-21T20:44:27.844Z,3.40
2017-05-21T20:46:56.917Z,4.90
2017-05-21T20:49:25.946Z,2.80
2017-05-21T20:51:55.088Z,3.34
2017-05-21T20:54:24.093Z,2.84
2017-05-21T20:56:53.099Z,3.58
2017-05-21T20:59:22.167Z,2.98
2017-05-21T21:01:51.278Z,3.10
2017-05-21T21:04:20.382Z,3.32
2017-05-21T21:06:49.438Z,4.32
2017-05-21T21:09:18.567Z,5.14
2017-05-21T21:11:47.605Z,2.80
2017-05-21T21:14:16.699Z,3.60
2017-05-21T21:16:45.750Z,2.82
2017-05-21T21:19:14.770Z,3.36
2017-05-21T21:21:43.818Z,3.28
2017-05-21T21:24:12.929Z,4.42
2017-05-21T21:26:42.127Z,3.78
2017-05-21T21:29:11.166Z,6.44
2017-05-21T21:31:40.202Z,5.48
2017-05-21T21:34:09.308Z,4.68
2017-05-21T21:36:38.367Z,3.96
2017-05-21T21:39:07.396Z,5.82
2017-05-21T21:41:36.407Z,4.10
2017-05-21T21:44:05.481Z,3.08
2017-05-21T21:46:34.492Z,5.36
2017-05-21T21:49:03.574Z,4.00
2017-05-21T21:51:32.630Z,6.30
2017-05-21T21:54:01.649Z,3.34
2017-05-21T21:56:30.665Z,2.80
2017-05-21T21:58:59.799Z,3.20
2017-05-21T22:01:28.836Z,3.00
2017-05-21T22:03:57.928Z,3.12
2017-05-21T22:06:26.976Z,4.28
2017-05-21T22:08:56.018Z,4.24
2017-05-21T22:11:25.055Z,3.80
2017-05-21T22:13:54.108Z,4.08
2017-05-21T22:16:23.121Z,3.60
2017-05-21T22:18:52.139Z,3.18
2017-05-21T22:21:21.292Z,3.52
2017-05-21T22:23:50.304Z,3.32
2017-05-21T22:26:19.329Z,3.82
2017-05-21T22:28:48.373Z,3.00
2017-05-21T22:31:17.387Z,5.50
2017-05-21T22:33:46.614Z,3.58
2017-05-21T22:36:15.675Z,3.84
2017-05-21T22:38:44.712Z,6.20
2017-05-21T22:41:13.796Z,3.20
2017-05-21T22:43:42.939Z,3.30
2017-05-21T22:46:12.039Z,3.64
2017-05-21T22:48:41.042Z,3.54
2017-05-21T22:51:10.096Z,6.46
2017-05-21T22:53:39.113Z,4.88
2017-05-21T22:56:08.126Z,4.90
2017-05-21T22:58:37.193Z,3.36
2017-05-21T23:01:06.295Z,3.16
2017-05-21T23:03:35.297Z,3.84
2017-05-21T23:06:04.340Z,5.24
2017-05-21T23:08:33.351Z,4.22
2017-05-21T23:11:02.369Z,3.78
2017-05-21T23:13:31.464Z,3.80
2017-05-21T23:16:00.473Z,3.52
2017-05-21T23:18:29.484Z,3.52
2017-05-21T23:20:58.545Z,3.98
2017-05-21T23:23:27.585Z,3.70
2017-05-21T23:25:55.835Z,4.34
2017-05-21T23:28:24.898Z,5.36
2017-05-21T23:30:53.914Z,3.38
2017-05-21T23:33:23.024Z,4.06
